Time;durP1;ratioP1;P1;durP2;ratioP2;P2;SDS_P1;SDS_P2;PMS_P1;PMS_P2;Temp;Humidity;BMP_temperature;BMP_pressure;BME280_temperature;BME280_humidity;BME280_pressure;Samples;Min_cycle;Max_cycle;Signal;HPM_P1;HPM_P2
2022/06/29 00:00:30;;;;;;;;;;;;;;;17.47;76.25;96806.50;30001;982;1880;-57
2022/06/29 00:01:07;;;;;;;;;;;;;;;17.48;76.14;96812.78;30001;971;1896;-56
2022/06/29 00:01:38;;;;;;;;;;;;;;;17.47;76.46;96809.25;30001;982;1880;-56
2022/06/29 00:02:09;;;;;;;;;;;;;;;17.48;76.34;96805.38;30001;982;1876;-55
2022/06/29 00:02:40;;;;;;;;;;;;;;;17.49;76.24;96808.91;30001;983;1879;-55
2022/06/29 00:03:11;;;;;;;;;;;;;;;17.49;76.25;96806.16;30001;983;1875;-55
2022/06/29 00:03:44;;;;;;;;;;;;;;;17.50;75.96;96805.03;30001;983;1866;-55
2022/06/29 00:04:18;;;;;;;;;;;;;;;17.50;76.24;96799.53;30001;983;1866;-55
2022/06/29 00:04:49;;;;;;;;;;;;;;;17.50;76.03;96810.50;30001;983;1787;-55
2022/06/29 00:05:21;;;;;;;;;;;;;;;17.49;75.83;96797.94;30001;983;1875;-55
2022/06/29 00:05:54;;;;;;;;;;;;;;;17.50;75.85;96799.53;30001;983;1880;-56
2022/06/29 00:06:25;;;;;;;;;;;;;;;17.51;76.25;96806.63;30001;983;1862;-55
2022/06/29 00:06:55;;;;;;;;;;;;;;;17.50;76.19;96805.03;30001;983;1872;-55
2022/06/29 00:07:26;;;;;;;;;;;;;;;17.52;76.23;96802.75;30001;982;1876;-55
2022/06/29 00:07:57;;;;;;;;;;;;;;;17.49;76.30;96796.00;30001;982;1880;-55
2022/06/29 00:08:29;;;;;;;;;;;;;;;17.50;76.26;96794.06;30001;963;1895;-55
2022/06/29 00:09:00;;;;;;;;;;;;;;;17.50;76.21;96797.59;30001;982;1867;-54
2022/06/29 00:09:31;;;;;;;;;;;;;;;17.51;76.17;96798.41;30001;982;1867;-55
2022/06/29 00:10:02;;;;;;;;;;;;;;;17.52;76.08;96792.56;30001;983;1879;-55
2022/06/29 00:10:34;;;;;;;;;;;;;;;17.55;75.95;96793.84;30001;983;1875;-55
2022/06/29 00:11:05;;;;;;;;;;;;;;;17.57;75.78;96794.31;30001;983;1879;-72
2022/06/29 00:11:36;;;;;;;;;;;;;;;17.59;75.54;96792.03;30001;983;1875;-55
2022/06/29 00:12:08;;;;;;;;;;;;;;;17.61;75.52;96789.75;30001;983;1880;-56
2022/06/29 00:12:39;;;;;;;;;;;;;;;17.63;74.97;96790.19;30001;983;1875;-56
2022/06/29 00:13:12;;;;;;;;;;;;;;;17.62;75.22;96785.84;30001;983;1867;-55
2022/06/29 00:13:42;;;;;;;;;;;;;;;17.61;75.37;96787.00;30001;983;1867;-55
2022/06/29 00:14:13;;;;;;;;;;;;;;;17.59;75.51;96786.53;30001;983;1880;-55
2022/06/29 00:14:44;;;;;;;;;;;;;;;17.58;75.40;96779.44;30001;983;1876;-55
2022/06/29 00:15:16;;;;;;;;;;;;;;;17.57;75.51;96784.13;30001;982;1880;-56
2022/06/29 00:15:47;;;;;;;;;;;;;;;17.58;75.16;96787.69;30001;982;1876;-54
2022/06/29 00:16:18;;;;;;;;;;;;;;;17.57;75.50;96788.81;30001;982;1880;-56
2022/06/29 00:16:52;;;;;;;;;;;;;;;17.56;75.55;96778.97;30001;982;1876;-55
2022/06/29 00:17:23;;;;;;;;;;;;;;;17.56;75.66;96781.72;30001;982;1880;-55
2022/06/29 00:17:54;;;;;;;;;;;;;;;17.56;75.64;96776.25;30001;983;1862;-55
2022/06/29 00:18:25;;;;;;;;;;;;;;;17.55;75.45;96780.94;30001;983;1871;-55
2022/06/29 00:18:56;;;;;;;;;;;;;;;17.55;75.68;96774.63;30001;983;1875;-55
2022/06/29 00:19:27;;;;;;;;;;;;;;;17.54;75.71;96775.78;30001;983;1880;-56
2022/06/29 00:20:02;;;;;;;;;;;;;;;17.55;75.41;96774.63;30001;983;1875;-57
2022/06/29 00:20:33;;;;;;;;;;;;;;;17.54;75.67;96775.78;30001;983;1880;-56
2022/06/29 00:21:04;;;;;;;;;;;;;;;17.54;75.58;96773.84;30001;983;1875;-56
2022/06/29 00:21:35;;;;;;;;;;;;;;;17.55;75.62;96777.37;30001;983;1880;-56
2022/06/29 00:22:06;;;;;;;;;;;;;;;17.55;75.52;96780.12;30001;983;1876;-55
2022/06/29 00:22:37;;;;;;;;;;;;;;;17.56;75.34;96773.50;30001;982;1867;-55
2022/06/29 00:23:11;;;;;;;;;;;;;;;17.55;75.44;96774.63;30001;982;1867;-56
2022/06/29 00:23:46;;;;;;;;;;;;;;;17.56;75.60;96773.50;30001;982;1880;-57
2022/06/29 00:24:17;;;;;;;;;;;;;;;17.55;75.47;96777.37;30001;982;1876;-56
2022/06/29 00:24:48;;;;;;;;;;;;;;;17.56;75.54;96770.75;30001;982;1867;-56
2022/06/29 00:25:19;;;;;;;;;;;;;;;17.58;75.55;96773.97;30001;983;1853;-71
2022/06/29 00:25:50;;;;;;;;;;;;;;;17.57;75.14;96773.16;30001;983;1866;-55
2022/06/29 00:26:21;;;;;;;;;;;;;;;17.57;75.42;96772.34;30001;983;1866;-56
2022/06/29 00:26:52;;;;;;;;;;;;;;;17.57;75.57;96772.34;30001;983;1880;-55
2022/06/29 00:27:23;;;;;;;;;;;;;;;17.56;75.48;96768.00;30001;983;1875;-70
2022/06/29 00:27:54;;;;;;;;;;;;;;;17.55;75.64;96769.16;30001;983;1880;-55
2022/06/29 00:28:25;;;;;;;;;;;;;;;17.55;75.55;96769.16;30001;983;1876;-56
2022/06/29 00:28:55;;;;;;;;;;;;;;;17.53;75.76;96772.22;30001;983;1880;-57
2022/06/29 00:29:27;;;;;;;;;;;;;;;17.53;75.85;96771.44;30001;983;1862;-55
2022/06/29 00:29:58;;;;;;;;;;;;;;;17.52;75.77;96776.13;30001;983;1871;-56
2022/06/29 00:30:29;;;;;;;;;;;;;;;17.52;75.52;96770.63;30001;982;1876;-71
2022/06/29 00:31:00;;;;;;;;;;;;;;;17.51;75.64;96768.22;30001;982;1880;-56
2022/06/29 00:31:31;;;;;;;;;;;;;;;17.50;75.88;96777.59;30001;982;1876;-56
2022/06/29 00:32:02;;;;;;;;;;;;;;;17.49;75.99;96770.50;30001;982;1867;-56
2022/06/29 00:32:33;;;;;;;;;;;;;;;17.48;75.94;96766.16;30001;983;1866;-55
2022/06/29 00:33:04;;;;;;;;;;;;;;;17.48;76.21;96763.41;30001;983;1795;-71
2022/06/29 00:33:35;;;;;;;;;;;;;;;17.47;76.38;96767.31;30001;983;1875;-55
2022/06/29 00:34:05;;;;;;;;;;;;;;;17.43;76.23;96767.97;30001;983;1880;-71
2022/06/29 00:34:36;;;;;;;;;;;;;;;17.42;77.63;96760.09;30001;983;1875;-55
2022/06/29 00:35:08;;;;;;;;;;;;;;;17.39;76.88;96766.25;30001;983;1867;-56
2022/06/29 00:35:39;;;;;;;;;;;;;;;17.38;76.96;96759.97;30001;983;1853;-70
2022/06/29 00:36:13;;;;;;;;;;;;;;;17.36;76.90;96767.72;30001;983;1880;-55
2022/06/29 00:36:44;;;;;;;;;;;;;;;17.36;77.25;96764.97;30001;982;1876;-55
2022/06/29 00:37:15;;;;;;;;;;;;;;;17.34;77.33;96756.28;30001;982;1880;-55
2022/06/29 00:37:46;;;;;;;;;;;;;;;17.34;77.05;96759.03;30001;982;1876;-56
2022/06/29 00:38:18;;;;;;;;;;;;;;;17.33;77.25;96762.13;30001;982;1880;-55
2022/06/29 00:38:49;;;;;;;;;;;;;;;17.33;77.28;96762.13;30001;982;1876;-55
2022/06/29 00:39:20;;;;;;;;;;;;;;;17.32;77.25;96755.88;30001;982;1880;-56
2022/06/29 00:39:51;;;;;;;;;;;;;;;17.31;77.41;96759.75;30001;982;1863;-56
2022/06/29 00:40:22;;;;;;;;;;;;;;;17.31;77.43;96754.25;30001;983;1871;-55
2022/06/29 00:40:52;;;;;;;;;;;;;;;17.31;77.30;96759.75;30001;983;1875;-55
2022/06/29 00:41:23;;;;;;;;;;;;;;;17.31;77.19;96754.25;30001;983;1880;-55
2022/06/29 00:41:55;;;;;;;;;;;;;;;17.31;76.80;96759.75;30001;983;1875;-55
2022/06/29 00:42:26;;;;;;;;;;;;;;;17.31;77.04;96754.25;30001;983;1880;-54
2022/06/29 00:42:56;;;;;;;;;;;;;;;17.32;76.80;96761.34;30001;983;1875;-56
2022/06/29 00:43:28;;;;;;;;;;;;;;;17.32;77.07;96760.53;30001;983;1880;-56
2022/06/29 00:43:59;;;;;;;;;;;;;;;17.32;76.91;96761.34;30001;983;1876;-54
2022/06/29 00:44:30;;;;;;;;;;;;;;;17.32;76.81;96755.88;30001;982;1867;-56
2022/06/29 00:45:04;;;;;;;;;;;;;;;17.32;76.70;96746.84;30001;982;1867;-54
2022/06/29 00:45:35;;;;;;;;;;;;;;;17.32;76.84;96750.38;30001;982;1880;-55
2022/06/29 00:46:06;;;;;;;;;;;;;;;17.33;76.80;96753.87;30001;982;1876;-56
2022/06/29 00:46:43;;;;;;;;;;;;;;;17.32;76.64;96747.63;30001;982;1881;-54
2022/06/29 00:47:13;;;;;;;;;;;;;;;17.33;76.62;96751.94;30001;982;1863;-56
2022/06/29 00:47:44;;;;;;;;;;;;;;;17.34;76.51;96748.06;30001;983;1871;-55
2022/06/29 00:48:16;;;;;;;;;;;;;;;17.35;76.69;96748.88;30001;983;1862;-56
2022/06/29 00:48:47;;;;;;;;;;;;;;;17.34;76.74;96742.59;30001;983;1871;-55
2022/06/29 00:49:19;;;;;;;;;;;;;;;17.36;76.54;96745.00;30001;983;1875;-55
2022/06/29 00:49:51;;;;;;;;;;;;;;;17.36;76.22;96745.00;30001;983;1866;-55
2022/06/29 00:50:31;;;;;;;;;;;;;;;17.36;76.33;96745.00;30001;983;1867;-54
2022/06/29 00:51:03;;;;;;;;;;;;;;;17.36;76.25;96745.78;30001;983;1880;-56
2022/06/29 00:51:35;;;;;;;;;;;;;;;17.36;76.21;96745.78;30001;983;1876;-55
2022/06/29 00:52:08;;;;;;;;;;;;;;;17.37;76.31;96747.37;30001;982;1880;-56
2022/06/29 00:52:44;;;;;;;;;;;;;;;17.37;76.29;96747.37;30001;982;1876;-71
2022/06/29 00:53:17;;;;;;;;;;;;;;;17.38;76.21;96746.25;30001;982;1880;-71
2022/06/29 00:53:52;;;;;;;;;;;;;;;17.38;75.95;96751.72;30001;982;1876;-55
2022/06/29 00:54:25;;;;;;;;;;;;;;;17.38;76.09;96750.94;30001;982;1881;-55
2022/06/29 00:54:59;;;;;;;;;;;;;;;17.38;76.22;96743.50;30001;982;1863;-56
2022/06/29 00:55:31;;;;;;;;;;;;;;;17.37;76.21;96744.66;30001;983;1871;-55
2022/06/29 00:56:07;;;;;;;;;;;;;;;17.36;77.29;96745.78;30001;983;1875;-56
2022/06/29 00:56:40;;;;;;;;;;;;;;;17.33;78.18;96745.66;30001;983;1880;-56
2022/06/29 00:57:17;;;;;;;;;;;;;;;17.28;78.69;96743.97;30001;983;1875;-55
2022/06/29 00:57:48;;;;;;;;;;;;;;;17.24;78.56;96748.53;30001;983;1880;-56
2022/06/29 00:58:20;;;;;;;;;;;;;;;17.23;79.07;96746.91;30001;983;1875;-55
2022/06/29 00:58:53;;;;;;;;;;;;;;;17.17;78.96;96742.78;30001;983;1880;-55
2022/06/29 00:59:24;;;;;;;;;;;;;;;17.15;78.54;96750.53;30001;982;1876;-55
2022/06/29 00:59:59;;;;;;;;;;;;;;;17.14;78.76;96743.47;30001;982;1880;-56
2022/06/29 01:00:30;;;;;;;;;;;;;;;17.13;78.75;96741.84;30001;982;1863;-55
2022/06/29 01:01:04;;;;;;;;;;;;;;;17.12;78.41;96740.25;30001;982;1871;-55
2022/06/29 01:01:35;;;;;;;;;;;;;;;17.12;78.37;96745.75;30001;976;1890;-57
2022/06/29 01:02:06;;;;;;;;;;;;;;;17.12;78.70;96745.75;30001;982;1880;-55
2022/06/29 01:02:38;;;;;;;;;;;;;;;17.12;78.61;96739.44;30001;982;1876;-56
2022/06/29 01:03:08;;;;;;;;;;;;;;;17.11;78.30;96737.84;30001;983;1879;-55
2022/06/29 01:03:39;;;;;;;;;;;;;;;17.11;78.17;96744.13;30001;983;1875;-56
2022/06/29 01:04:10;;;;;;;;;;;;;;;17.08;79.10;96740.13;30001;983;1880;-71
2022/06/29 01:04:42;;;;;;;;;;;;;;;17.06;78.56;96745.16;30001;983;1875;-55
2022/06/29 01:05:14;;;;;;;;;;;;;;;17.06;78.54;96738.87;30001;983;1880;-56
2022/06/29 01:05:47;;;;;;;;;;;;;;;17.04;78.48;96741.13;30001;983;1862;-55
2022/06/29 01:06:18;;;;;;;;;;;;;;;17.02;78.90;96746.97;30001;983;1871;-56
2022/06/29 01:06:50;;;;;;;;;;;;;;;17.00;79.48;96743.75;30001;983;1782;-56
2022/06/29 01:07:26;;;;;;;;;;;;;;;16.97;79.37;96740.91;30001;982;1881;-54
2022/06/29 01:07:57;;;;;;;;;;;;;;;16.96;79.56;96740.09;30001;982;1876;-55
2022/06/29 01:08:28;;;;;;;;;;;;;;;16.94;79.91;96745.13;30001;982;1880;-54
2022/06/29 01:08:59;;;;;;;;;;;;;;;16.94;79.86;96738.84;30001;982;1876;-55
2022/06/29 01:09:32;;;;;;;;;;;;;;;16.93;80.25;96742.72;30001;983;1879;-55
2022/06/29 01:10:03;;;;;;;;;;;;;;;16.91;79.81;96750.47;30001;983;1875;-55
2022/06/29 01:10:34;;;;;;;;;;;;;;;16.90;80.39;96748.88;30001;983;1879;-56
2022/06/29 01:11:05;;;;;;;;;;;;;;;16.88;79.93;96741.00;30001;983;1862;-56
2022/06/29 01:11:36;;;;;;;;;;;;;;;16.90;80.20;96743.41;30001;983;1871;-70
2022/06/29 01:12:07;;;;;;;;;;;;;;;16.89;80.07;96744.53;30001;983;1875;-57
2022/06/29 01:12:38;;;;;;;;;;;;;;;16.90;80.36;96743.41;30001;983;1791;-56
2022/06/29 01:13:10;;;;;;;;;;;;;;;16.90;80.04;96741.44;30001;983;1875;-71
2022/06/29 01:13:42;;;;;;;;;;;;;;;16.91;80.19;96736.78;30001;983;1880;-70
2022/06/29 01:14:15;;;;;;;;;;;;;;;16.90;79.83;96744.19;30001;983;1876;-54
2022/06/29 01:14:49;;;;;;;;;;;;;;;16.89;80.06;96739.03;30001;982;1880;-73
2022/06/29 01:15:21;;;;;;;;;;;;;;;16.89;79.99;96739.03;30001;982;1876;-72
2022/06/29 01:15:52;;;;;;;;;;;;;;;16.89;79.99;96736.31;30001;982;1880;-55
2022/06/29 01:16:23;;;;;;;;;;;;;;;16.89;79.77;96739.84;30001;982;1863;-56
2022/06/29 01:16:55;;;;;;;;;;;;;;;16.88;80.15;96731.97;30001;982;1871;-71
2022/06/29 01:17:26;;;;;;;;;;;;;;;16.89;79.76;96741.78;30001;983;1875;-72
2022/06/29 01:17:57;;;;;;;;;;;;;;;16.89;80.00;96741.78;30001;983;1879;-73
2022/06/29 01:18:28;;;;;;;;;;;;;;;16.89;79.90;96739.03;30001;983;1876;-73
2022/06/29 01:18:59;;;;;;;;;;;;;;;16.87;80.01;96744.88;30001;983;1879;-55
2022/06/29 01:19:29;;;;;;;;;;;;;;;16.88;79.92;96745.66;30001;983;1875;-71
2022/06/29 01:20:00;;;;;;;;;;;;;;;16.87;79.89;96744.06;30001;983;1880;-73
2022/06/29 01:20:31;;;;;;;;;;;;;;;16.87;79.83;96738.59;30001;983;1875;-72
2022/06/29 01:21:05;;;;;;;;;;;;;;;16.86;79.43;96739.72;30001;983;1867;-73
2022/06/29 01:21:39;;;;;;;;;;;;;;;16.87;79.54;96744.06;30001;983;1867;-72
2022/06/29 01:22:11;;;;;;;;;;;;;;;16.86;79.83;96736.97;30001;982;1880;-55
2022/06/29 01:22:42;;;;;;;;;;;;;;;16.87;79.89;96744.06;30001;982;1876;-55
2022/06/29 01:23:13;;;;;;;;;;;;;;;16.86;79.74;96739.72;30001;982;1867;-71
2022/06/29 01:23:45;;;;;;;;;;;;;;;16.85;79.66;96741.66;30001;982;1867;-70
2022/06/29 01:24:16;;;;;;;;;;;;;;;16.85;79.83;96735.38;30001;982;1880;-72
2022/06/29 01:24:48;;;;;;;;;;;;;;;16.85;79.67;96741.66;30001;983;1875;-73
2022/06/29 01:25:18;;;;;;;;;;;;;;;16.86;79.91;96742.47;30001;983;1879;-55
2022/06/29 01:25:52;;;;;;;;;;;;;;;16.85;79.80;96741.66;30001;973;1895;-55
2022/06/29 01:26:23;;;;;;;;;;;;;;;16.86;79.83;96742.47;30001;983;1867;-70
2022/06/29 01:26:54;;;;;;;;;;;;;;;16.86;79.64;96742.47;30001;985;1739;-72
2022/06/29 01:27:25;;;;;;;;;;;;;;;16.85;79.73;96740.84;30001;983;1880;-72
2022/06/29 01:27:56;;;;;;;;;;;;;;;16.85;79.76;96746.34;30001;983;1875;-73
2022/06/29 01:28:27;;;;;;;;;;;;;;;16.85;80.01;96740.84;30001;987;1872;-72
2022/06/29 01:28:59;;;;;;;;;;;;;;;16.87;79.71;96749.53;30001;983;1881;-73
2022/06/29 01:29:30;;;;;;;;;;;;;;;16.86;80.06;96742.47;30001;983;1876;-73
2022/06/29 01:30:07;;;;;;;;;;;;;;;16.87;79.67;96744.88;30001;982;1867;-55
2022/06/29 01:30:38;;;;;;;;;;;;;;;16.86;79.63;96742.47;30001;982;1868;-72
2022/06/29 01:31:15;;;;;;;;;;;;;;;16.86;79.64;96742.47;30001;982;1880;-73
2022/06/29 01:31:45;;;;;;;;;;;;;;;16.85;79.71;96740.84;30001;982;1876;-73
2022/06/29 01:32:16;;;;;;;;;;;;;;;16.85;79.67;96740.84;30001;983;1879;-57
2022/06/29 01:32:47;;;;;;;;;;;;;;;16.85;79.71;96740.84;30001;983;1875;-73
2022/06/29 01:33:18;;;;;;;;;;;;;;;16.84;79.68;96750.22;30001;983;1880;-55
2022/06/29 01:33:49;;;;;;;;;;;;;;;16.84;79.92;96748.28;30001;983;1862;-72
2022/06/29 01:34:20;;;;;;;;;;;;;;;16.85;79.73;96751.81;30001;983;1871;-72
2022/06/29 01:34:52;;;;;;;;;;;;;;;16.83;79.75;96751.34;30001;983;1875;-72
2022/06/29 01:35:23;;;;;;;;;;;;;;;16.83;79.78;96749.41;30001;983;1880;-72
2022/06/29 01:35:54;;;;;;;;;;;;;;;16.82;79.98;96753.28;30001;983;1875;-72
2022/06/29 01:36:26;;;;;;;;;;;;;;;16.84;79.74;96750.22;30001;983;1880;-55
2022/06/29 01:36:58;;;;;;;;;;;;;;;16.83;79.79;96751.34;30001;983;1876;-55
2022/06/29 01:37:29;;;;;;;;;;;;;;;16.83;79.77;96754.09;30001;982;1880;-71
2022/06/29 01:38:00;;;;;;;;;;;;;;;16.83;80.07;96754.09;30001;982;1876;-56
2022/06/29 01:38:31;;;;;;;;;;;;;;;16.82;79.75;96747.00;30001;984;1862;-55
2022/06/29 01:39:02;;;;;;;;;;;;;;;16.83;79.89;96754.09;30001;982;1876;-73
2022/06/29 01:39:34;;;;;;;;;;;;;;;16.82;79.87;96758.78;30001;982;1868;-56
2022/06/29 01:40:06;;;;;;;;;;;;;;;16.82;79.90;96755.22;30001;983;1875;-56
2022/06/29 01:40:37;;;;;;;;;;;;;;;16.82;79.65;96756.03;30001;983;1880;-72
2022/06/29 01:41:10;;;;;;;;;;;;;;;16.82;79.63;96752.50;30001;983;1884;-55
2022/06/29 01:41:41;;;;;;;;;;;;;;;16.83;79.69;96754.09;30001;983;1880;-70
2022/06/29 01:42:12;;;;;;;;;;;;;;;16.83;79.76;96754.09;30001;983;1884;-70
2022/06/29 01:42:46;;;;;;;;;;;;;;;16.82;79.45;96753.28;30001;983;1867;-71
2022/06/29 01:43:17;;;;;;;;;;;;;;;16.83;79.71;96759.56;30001;983;1875;-71
2022/06/29 01:43:51;;;;;;;;;;;;;;;16.83;79.37;96759.56;30001;983;1880;-72
2022/06/29 01:44:23;;;;;;;;;;;;;;;16.82;79.84;96764.25;30001;982;1884;-71
2022/06/29 01:44:57;;;;;;;;;;;;;;;16.83;79.55;96762.31;30001;982;1881;-55
2022/06/29 01:45:28;;;;;;;;;;;;;;;16.82;79.75;96758.78;30001;982;1885;-73
2022/06/29 01:45:59;;;;;;;;;;;;;;;16.83;79.57;96765.84;30001;982;1880;-71
2022/06/29 01:46:29;;;;;;;;;;;;;;;16.83;79.70;96759.56;30001;982;1801;-56
2022/06/29 01:47:01;;;;;;;;;;;;;;;16.84;79.89;96761.16;30001;982;1880;-55
2022/06/29 01:47:32;;;;;;;;;;;;;;;16.83;79.86;96760.38;30001;983;1884;-72
2022/06/29 01:48:06;;;;;;;;;;;;;;;16.85;79.77;96762.78;30001;964;1885;-56
2022/06/29 01:48:37;;;;;;;;;;;;;;;16.84;79.68;96761.97;30001;983;1875;-71
2022/06/29 01:49:07;;;;;;;;;;;;;;;16.84;79.73;96761.97;30001;964;1899;-71
2022/06/29 01:49:38;;;;;;;;;;;;;;;16.84;80.62;96761.97;30001;983;1884;-55
2022/06/29 01:50:10;;;;;;;;;;;;;;;16.83;81.54;96765.06;30001;983;1880;-55
2022/06/29 01:50:40;;;;;;;;;;;;;;;16.79;82.33;96764.13;30001;983;1884;-70
2022/06/29 01:51:11;;;;;;;;;;;;;;;16.77;82.00;96755.44;30001;983;1880;-72
2022/06/29 01:51:42;;;;;;;;;;;;;;;16.75;81.77;96753.81;30001;982;1884;-72
2022/06/29 01:52:13;;;;;;;;;;;;;;;16.74;81.50;96751.41;30001;982;1881;-55
2022/06/29 01:52:44;;;;;;;;;;;;;;;16.74;81.86;96759.63;30001;982;1871;-56
2022/06/29 01:53:15;;;;;;;;;;;;;;;16.73;81.34;96755.28;30001;982;1871;-73
2022/06/29 01:53:46;;;;;;;;;;;;;;;16.72;81.73;96759.97;30001;982;1885;-71
2022/06/29 01:54:17;;;;;;;;;;;;;;;16.72;81.19;96757.22;30002;982;1880;-72
2022/06/29 01:54:48;;;;;;;;;;;;;;;16.72;81.32;96759.97;30002;983;1884;-56
2022/06/29 01:55:19;;;;;;;;;;;;;;;16.72;81.06;96754.50;30002;983;1879;-55
2022/06/29 01:55:51;;;;;;;;;;;;;;;16.74;81.04;96765.91;30002;983;1871;-55
2022/06/29 01:56:21;;;;;;;;;;;;;;;16.73;81.31;96761.56;30002;983;1871;-56
2022/06/29 01:56:53;;;;;;;;;;;;;;;16.74;81.08;96757.69;30002;983;1871;-56
2022/06/29 01:57:23;;;;;;;;;;;;;;;16.72;81.76;96765.44;30002;983;1871;-56
2022/06/29 01:57:54;;;;;;;;;;;;;;;16.71;81.64;96754.81;30002;983;1884;-56
2022/06/29 01:58:26;;;;;;;;;;;;;;;16.69;81.42;96757.91;30002;983;1817;-55
2022/06/29 01:58:57;;;;;;;;;;;;;;;16.67;82.00;96757.44;30002;982;1884;-55
2022/06/29 01:59:28;;;;;;;;;;;;;;;16.65;82.44;96751.50;30002;982;1880;-54
2022/06/29 01:59:59;;;;;;;;;;;;;;;16.60;82.54;96748.94;30002;982;1884;-71
2022/06/29 02:00:32;;;;;;;;;;;;;;;16.60;82.07;96762.66;30002;982;1880;-56
2022/06/29 02:01:03;;;;;;;;;;;;;;;16.59;81.91;96750.09;30002;982;1885;-55
2022/06/29 02:01:34;;;;;;;;;;;;;;;16.60;81.99;96754.44;30002;982;1880;-56
2022/06/29 02:02:05;;;;;;;;;;;;;;;16.61;81.66;96753.28;30002;982;1872;-72
2022/06/29 02:02:36;;;;;;;;;;;;;;;16.61;81.81;96753.28;30002;983;1857;-56
2022/06/29 02:03:07;;;;;;;;;;;;;;;16.62;81.44;96752.16;30002;983;1884;-71
2022/06/29 02:03:38;;;;;;;;;;;;;;;16.63;81.23;96755.69;30002;983;1880;-56
2022/06/29 02:04:09;;;;;;;;;;;;;;;16.63;81.58;96751.00;30002;983;1885;-56
2022/06/29 02:04:41;;;;;;;;;;;;;;;16.64;81.12;96751.81;30002;983;1866;-56
2022/06/29 02:05:14;;;;;;;;;;;;;;;16.64;81.12;96752.63;30002;983;1875;-71
2022/06/29 02:05:46;;;;;;;;;;;;;;;16.64;81.17;96752.63;30002;983;1880;-73
2022/06/29 02:06:18;;;;;;;;;;;;;;;16.64;81.34;96741.66;30002;983;1885;-55
2022/06/29 02:06:49;;;;;;;;;;;;;;;16.65;81.21;96743.28;30002;982;1880;-55
2022/06/29 02:07:20;;;;;;;;;;;;;;;16.65;81.02;96746.00;30002;982;1884;-55
2022/06/29 02:07:51;;;;;;;;;;;;;;;16.66;81.07;96744.88;30002;982;1880;-55
2022/06/29 02:08:22;;;;;;;;;;;;;;;16.67;81.08;96745.69;30003;827;1014;-71
2022/06/29 02:08:53;;;;;;;;;;;;;;;16.67;80.96;96749.22;30002;982;1880;-55
2022/06/29 02:09:23;;;;;;;;;;;;;;;16.67;81.15;96745.69;30002;982;1885;-55
2022/06/29 02:09:54;;;;;;;;;;;;;;;16.68;81.92;96744.53;30002;983;1866;-55
2022/06/29 02:10:25;;;;;;;;;;;;;;;16.67;81.65;96746.47;30002;983;1875;-56
2022/06/29 02:10:57;;;;;;;;;;;;;;;16.67;81.38;96746.47;30002;983;1867;-55
2022/06/29 02:11:28;;;;;;;;;;;;;;;16.68;81.68;96748.06;30002;983;1875;-72
2022/06/29 02:11:59;;;;;;;;;;;;;;;16.69;81.38;96741.47;30002;983;1880;-56
2022/06/29 02:12:32;;;;;;;;;;;;;;;16.69;81.62;96741.47;30002;983;1884;-55
2022/06/29 02:13:03;;;;;;;;;;;;;;;16.69;81.44;96746.94;30002;983;1880;-56
2022/06/29 02:13:33;;;;;;;;;;;;;;;16.70;81.18;96745.81;30002;983;1884;-70
2022/06/29 02:14:04;;;;;;;;;;;;;;;16.70;81.21;96745.81;30002;982;1880;-72
2022/06/29 02:14:35;;;;;;;;;;;;;;;16.72;81.19;96743.53;30002;982;1884;-72
2022/06/29 02:15:07;;;;;;;;;;;;;;;16.73;80.80;96745.13;30002;982;1880;-55
2022/06/29 02:15:38;;;;;;;;;;;;;;;16.74;80.76;96746.75;30002;982;1884;-56
2022/06/29 02:16:10;;;;;;;;;;;;;;;16.75;80.68;96742.06;30002;982;1867;-54
2022/06/29 02:16:41;;;;;;;;;;;;;;;16.77;80.64;96744.47;30002;983;1875;-55
2022/06/29 02:17:13;;;;;;;;;;;;;;;16.79;80.76;96750.41;30002;983;1866;-73
2022/06/29 02:17:44;;;;;;;;;;;;;;;16.79;80.62;96742.19;30002;983;1875;-55
2022/06/29 02:18:15;;;;;;;;;;;;;;;16.79;80.35;96737.53;30002;983;1880;-54
2022/06/29 02:18:46;;;;;;;;;;;;;;;16.79;80.71;96737.53;30002;983;1884;-56
2022/06/29 02:19:16;;;;;;;;;;;;;;;16.81;80.20;96739.91;30002;983;1880;-54
2022/06/29 02:19:47;;;;;;;;;;;;;;;16.80;80.43;96739.13;30002;983;1884;-71
2022/06/29 02:20:18;;;;;;;;;;;;;;;16.82;80.44;96741.53;30002;983;1872;-55
2022/06/29 02:20:49;;;;;;;;;;;;;;;16.82;80.43;96736.84;30002;983;1884;-72
2022/06/29 02:21:20;;;;;;;;;;;;;;;16.83;80.11;96743.94;30002;983;1876;-56
2022/06/29 02:21:51;;;;;;;;;;;;;;;16.82;80.97;96741.53;30002;982;1884;-55
2022/06/29 02:22:22;;;;;;;;;;;;;;;16.81;80.84;96739.91;30002;982;1867;-55
2022/06/29 02:22:54;;;;;;;;;;;;;;;16.79;80.69;96740.25;30002;982;1876;-55
2022/06/29 02:23:25;;;;;;;;;;;;;;;16.79;80.57;96737.53;30002;982;1881;-72
2022/06/29 02:23:55;;;;;;;;;;;;;;;16.79;80.90;96742.19;30002;982;1885;-56
2022/06/29 02:24:26;;;;;;;;;;;;;;;16.78;80.86;96733.19;30002;983;1866;-55
2022/06/29 02:24:57;;;;;;;;;;;;;;;16.79;80.98;96732.03;30002;983;1875;-55
2022/06/29 02:25:29;;;;;;;;;;;;;;;16.80;80.81;96732.84;30002;983;1879;-72
2022/06/29 02:26:00;;;;;;;;;;;;;;;16.79;80.86;96733.97;30002;983;1884;-72
2022/06/29 02:26:30;;;;;;;;;;;;;;;16.79;80.58;96736.72;30002;983;1880;-72
2022/06/29 02:27:01;;;;;;;;;;;;;;;16.81;80.64;96728.97;30002;983;1884;-55
2022/06/29 02:27:33;;;;;;;;;;;;;;;16.81;80.35;96728.97;30002;983;1867;-72
2022/06/29 02:28:04;;;;;;;;;;;;;;;16.80;80.42;96725.41;30002;983;1876;-56
2022/06/29 02:28:35;;;;;;;;;;;;;;;16.82;80.57;96730.56;30002;983;1867;-72
2022/06/29 02:29:07;;;;;;;;;;;;;;;16.82;80.39;96727.81;30002;983;1876;-55
2022/06/29 02:29:39;;;;;;;;;;;;;;;16.83;80.38;96726.69;30002;982;1880;-71
2022/06/29 02:30:11;;;;;;;;;;;;;;;16.84;80.10;96722.81;30002;982;1884;-55
2022/06/29 02:34:47;;;;;;;;;;;;;;;16.76;80.43;96716.28;30002;983;1875;-70
2022/06/29 02:35:18;;;;;;;;;;;;;;;16.74;80.31;96719.34;30002;983;1880;-72
2022/06/29 02:35:49;;;;;;;;;;;;;;;16.72;80.22;96720.81;30002;983;1884;-55
2022/06/29 02:36:19;;;;;;;;;;;;;;;16.71;80.37;96720.00;30002;983;1880;-73
2022/06/29 02:36:51;;;;;;;;;;;;;;;16.69;80.63;96722.28;30002;982;1885;-71
2022/06/29 02:37:22;;;;;;;;;;;;;;;16.69;80.38;96711.34;30002;982;1880;-71
2022/06/29 02:37:53;;;;;;;;;;;;;;;16.69;80.73;96716.81;30002;982;1885;-55
2022/06/29 02:38:24;;;;;;;;;;;;;;;16.68;80.58;96715.19;30002;982;1880;-55
2022/06/29 02:38:56;;;;;;;;;;;;;;;16.67;80.77;96719.09;30002;982;1794;-54
2022/06/29 02:39:26;;;;;;;;;;;;;;;16.66;80.87;96708.47;30002;983;1866;-73
2022/06/29 02:39:58;;;;;;;;;;;;;;;16.65;80.55;96704.91;30002;983;1875;-55
2022/06/29 02:40:29;;;;;;;;;;;;;;;16.64;80.70;96708.78;30002;983;1880;-55
2022/06/29 02:41:00;;;;;;;;;;;;;;;16.64;80.89;96714.28;30002;983;1885;-55
2022/06/29 02:41:31;;;;;;;;;;;;;;;16.64;80.67;96708.00;30002;983;1792;-56
2022/06/29 02:42:02;;;;;;;;;;;;;;;16.63;81.05;96709.91;30002;983;1885;-55
2022/06/29 02:42:33;;;;;;;;;;;;;;;16.64;81.11;96722.50;30002;983;1880;-72
2022/06/29 02:43:03;;;;;;;;;;;;;;;16.63;80.83;96711.88;30002;983;1885;-56
2022/06/29 02:43:34;;;;;;;;;;;;;;;16.63;80.83;96715.37;30002;983;1880;-72
2022/06/29 02:44:05;;;;;;;;;;;;;;;16.62;81.05;96711.06;30002;983;1885;-55
2022/06/29 02:44:42;;;;;;;;;;;;;;;16.61;80.84;96720.41;30002;982;1768;-70
2022/06/29 02:45:13;;;;;;;;;;;;;;;16.61;81.18;96714.94;30002;982;1876;-55
2022/06/29 02:45:44;;;;;;;;;;;;;;;16.60;80.98;96713.34;30002;982;1880;-56
2022/06/29 02:46:17;;;;;;;;;;;;;;;16.59;81.36;96711.72;30001;982;1872;-55
2022/06/29 02:46:47;;;;;;;;;;;;;;;16.59;81.04;96722.69;30002;983;1857;-55
2022/06/29 02:47:19;;;;;;;;;;;;;;;16.59;81.19;96717.22;30001;983;1884;-55
2022/06/29 02:47:51;;;;;;;;;;;;;;;16.59;81.48;96717.22;30001;983;1880;-55
2022/06/29 02:48:22;;;;;;;;;;;;;;;16.59;81.47;96717.22;30001;983;1884;-73
2022/06/29 02:48:53;;;;;;;;;;;;;;;16.59;81.06;96719.94;30001;962;1901;-55
2022/06/29 02:49:24;;;;;;;;;;;;;;;16.58;81.29;96715.59;30001;983;1884;-55
2022/06/29 02:49:55;;;;;;;;;;;;;;;16.59;81.39;96719.16;30001;983;1880;-56
2022/06/29 02:50:26;;;;;;;;;;;;;;;16.58;81.37;96712.88;30001;983;1884;-55
2022/06/29 02:50:56;;;;;;;;;;;;;;;16.58;81.09;96712.88;30001;983;1880;-55
2022/06/29 02:51:27;;;;;;;;;;;;;;;16.57;81.29;96711.25;30001;982;1884;-55
2022/06/29 02:51:58;;;;;;;;;;;;;;;16.58;81.13;96707.38;30001;982;1867;-56
2022/06/29 02:52:29;;;;;;;;;;;;;;;16.59;81.10;96713.66;30001;982;1863;-55
2022/06/29 02:53:00;;;;;;;;;;;;;;;16.58;80.91;96710.13;30001;982;1880;-55